Friday, January 19, 2018, 2:32 AM EST
Back to Local

KHGR, Hagerstown Regional Airport

Location: Hagerstown, MD, United States Lat: 39.7
Local Time: 2:32 AM EST ( 7:32 GMT) Lon: -77.733
Time Zone: US/Eastern Elev: 705 ft

Show me the last for .
Show Decoded

2018-01-19 01:53 METAR KHGR 190653Z AUTO 24008KT 10SM CLR 02/M11 A3006 RMK AO2 SLP195 T00171111 =
2018-01-19 00:53 METAR KHGR 190553Z AUTO 22007KT 10SM CLR 01/M11 A3006 RMK AO2 SLP197 T00061111
                 10011 21017 58010 =
2018-01-18 23:53 METAR KHGR 190453Z AUTO 21006KT 10SM CLR 01/M12 A3008 RMK AO2 SLP204 T00061117
                 400391122 =
2018-01-18 22:53 METAR KHGR 190353Z AUTO 25006KT 10SM CLR 01/M11 A3009 RMK AO2 SLP208 T00061111 =
2018-01-18 21:53 METAR KHGR 190253Z 24006KT 10SM CLR 01/M13 A3009 RMK AO2 SLP208 T00061128 51010
                 =
2018-01-18 20:53 METAR KHGR 190153Z 00000KT 10SM CLR M02/M12 A3009 RMK AO2 SLP208 T10171122 =
2018-01-18 19:53 METAR KHGR 190053Z 26005KT 10SM CLR 01/M13 A3007 RMK AO2 SLP202 T00061128 =
2018-01-18 18:53 METAR KHGR 182353Z 28011KT 10SM CLR 01/M12 A3006 RMK AO2 SLP199 T00111122 10039
                 20006 53019 =
2018-01-18 17:53 METAR KHGR 182253Z 27009G18KT 10SM CLR 02/M12 A3004 RMK AO2 SLP193 T00171122 =
2018-01-18 16:53 METAR KHGR 182153Z 28012KT 10SM CLR 03/M11 A3002 RMK AO2 SLP184 T00281111 =
2018-01-18 15:53 METAR KHGR 182053Z 28011KT 10SM CLR 03/M10 A3000 RMK AO2 SLP179 T00331100 56018
                 =
2018-01-18 14:53 METAR KHGR 181953Z 28012KT 10SM CLR 03/M11 A3001 RMK AO2 SLP182 T00331111 =
2018-01-18 13:53 METAR KHGR 181853Z 25010KT 10SM CLR 02/M12 A3003 RMK AO2 SLP190 T00221117 =
2018-01-18 12:53 METAR KHGR 181753Z 25012G16KT 10SM CLR 01/M13 A3006 RMK AO2 SLP199 T00061128
                 10006 21089 58032 =
2018-01-18 11:53 METAR KHGR 181653Z 24011KT 10SM CLR M01/M13 A3010 RMK AO2 SLP216 T10061133 =
2018-01-18 10:53 METAR KHGR 181553Z 24007KT 10SM CLR M02/M13 A3014 RMK AO2 SLP227 T10221133 =
2018-01-18 09:53 METAR KHGR 181453Z 24008KT 10SM CLR M04/M14 A3015 RMK AO2 SLP233 T10391139 53002
                 =
2018-01-18 08:53 METAR KHGR 181353Z 24006KT 10SM CLR M06/M14 A3015 RMK AO2 SLP233 T10561144 =
2018-01-18 07:53 METAR KHGR 181253Z 25004KT 10SM CLR M08/M16 A3015 RMK AO2 SLP232 T10781156 =
2018-01-18 06:53 METAR KHGR 181153Z 25004KT 10SM CLR M08/M16 A3015 RMK AO2 SLP232 T10831156 11083
                 21122 55010 =
2018-01-18 05:53 METAR KHGR 181053Z AUTO 15006KT 10SM CLR M11/M16 A3015 RMK AO2 SLP232 T11061156
                 =
2018-01-18 04:53 METAR KHGR 180953Z AUTO 22003KT 10SM CLR M10/M16 A3015 RMK AO2 SLP233 T11001156
                 =
2018-01-18 03:53 METAR KHGR 180853Z AUTO 18004KT 10SM CLR M11/M16 A3018 RMK AO2 SLP243 T11111156
                 58023 =
2018-01-18 02:53 METAR KHGR 180753Z AUTO 24004KT 10SM CLR M10/M15 A3021 RMK AO2 SLP254 T11001150
                 =

Support USWX by starting your Amazon purchase here.